sensor_id;sensor_type;location;lat;lon;timestamp;temperature;humidity
56478;DHT22;42382;53.210;5.772;2023-07-24T00:02:14;17.80;87.30
56478;DHT22;42382;53.210;5.772;2023-07-24T00:04:40;17.70;87.20
56478;DHT22;42382;53.210;5.772;2023-07-24T00:07:05;17.70;87.30
56478;DHT22;42382;53.210;5.772;2023-07-24T00:09:31;17.70;87.50
56478;DHT22;42382;53.210;5.772;2023-07-24T00:11:57;17.70;87.60
56478;DHT22;42382;53.210;5.772;2023-07-24T00:14:23;17.70;87.70
56478;DHT22;42382;53.210;5.772;2023-07-24T00:16:48;17.70;87.80
56478;DHT22;42382;53.210;5.772;2023-07-24T00:19:14;17.70;87.90
56478;DHT22;42382;53.210;5.772;2023-07-24T00:21:40;17.70;87.70
56478;DHT22;42382;53.210;5.772;2023-07-24T00:24:05;17.70;87.80
56478;DHT22;42382;53.210;5.772;2023-07-24T00:26:31;17.70;87.70
56478;DHT22;42382;53.210;5.772;2023-07-24T00:28:57;17.70;87.70
56478;DHT22;42382;53.210;5.772;2023-07-24T00:31:22;17.70;87.60
56478;DHT22;42382;53.210;5.772;2023-07-24T00:33:48;17.70;87.70
56478;DHT22;42382;53.210;5.772;2023-07-24T00:36:14;17.70;87.70
56478;DHT22;42382;53.210;5.772;2023-07-24T00:38:39;17.70;87.90
56478;DHT22;42382;53.210;5.772;2023-07-24T00:41:05;17.70;88.00
56478;DHT22;42382;53.210;5.772;2023-07-24T00:43:30;17.70;87.90
56478;DHT22;42382;53.210;5.772;2023-07-24T00:45:57;17.70;88.00
56478;DHT22;42382;53.210;5.772;2023-07-24T00:48:23;17.60;87.90
56478;DHT22;42382;53.210;5.772;2023-07-24T00:50:49;17.60;87.90
56478;DHT22;42382;53.210;5.772;2023-07-24T00:53:15;17.50;88.00
56478;DHT22;42382;53.210;5.772;2023-07-24T00:55:42;17.60;87.80
56478;DHT22;42382;53.210;5.772;2023-07-24T00:58:11;17.50;87.70
56478;DHT22;42382;53.210;5.772;2023-07-24T01:00:40;17.40;87.70
56478;DHT22;42382;53.210;5.772;2023-07-24T01:03:05;17.40;87.80
56478;DHT22;42382;53.210;5.772;2023-07-24T01:05:31;17.40;88.10
56478;DHT22;42382;53.210;5.772;2023-07-24T01:07:57;17.40;88.00
56478;DHT22;42382;53.210;5.772;2023-07-24T01:10:22;17.30;88.30
56478;DHT22;42382;53.210;5.772;2023-07-24T01:13:00;17.30;88.20
56478;DHT22;42382;53.210;5.772;2023-07-24T01:15:33;17.40;88.30
56478;DHT22;42382;53.210;5.772;2023-07-24T01:18:01;17.30;88.40
56478;DHT22;42382;53.210;5.772;2023-07-24T01:20:29;17.40;88.40
56478;DHT22;42382;53.210;5.772;2023-07-24T01:23:11;17.40;88.40
56478;DHT22;42382;53.210;5.772;2023-07-24T01:25:57;17.40;88.40
56478;DHT22;42382;53.210;5.772;2023-07-24T01:28:27;17.40;88.30
56478;DHT22;42382;53.210;5.772;2023-07-24T01:30:54;17.40;88.40
56478;DHT22;42382;53.210;5.772;2023-07-24T01:33:21;17.40;88.30
56478;DHT22;42382;53.210;5.772;2023-07-24T01:35:50;17.40;88.30
56478;DHT22;42382;53.210;5.772;2023-07-24T01:38:17;17.40;88.30
56478;DHT22;42382;53.210;5.772;2023-07-24T01:40:44;17.40;88.40
56478;DHT22;42382;53.210;5.772;2023-07-24T01:43:10;17.40;88.60
56478;DHT22;42382;53.210;5.772;2023-07-24T01:45:36;17.40;88.70
56478;DHT22;42382;53.210;5.772;2023-07-24T01:48:05;17.40;88.50
56478;DHT22;42382;53.210;5.772;2023-07-24T01:50:31;17.40;88.50
56478;DHT22;42382;53.210;5.772;2023-07-24T01:52:57;17.40;88.60
56478;DHT22;42382;53.210;5.772;2023-07-24T01:55:22;17.40;88.50
56478;DHT22;42382;53.210;5.772;2023-07-24T01:57:48;17.50;88.50
56478;DHT22;42382;53.210;5.772;2023-07-24T02:00:14;17.50;88.60
56478;DHT22;42382;53.210;5.772;2023-07-24T02:02:40;17.50;88.50
56478;DHT22;42382;53.210;5.772;2023-07-24T02:05:05;17.60;88.70
56478;DHT22;42382;53.210;5.772;2023-07-24T02:07:31;17.60;88.60
56478;DHT22;42382;53.210;5.772;2023-07-24T02:09:57;17.50;88.60
56478;DHT22;42382;53.210;5.772;2023-07-24T02:12:23;17.60;88.60
56478;DHT22;42382;53.210;5.772;2023-07-24T02:14:49;17.50;88.60
56478;DHT22;42382;53.210;5.772;2023-07-24T02:17:17;17.60;88.70
56478;DHT22;42382;53.210;5.772;2023-07-24T02:19:42;17.60;88.70
56478;DHT22;42382;53.210;5.772;2023-07-24T02:22:08;17.60;88.70
56478;DHT22;42382;53.210;5.772;2023-07-24T02:24:34;17.60;88.70
56478;DHT22;42382;53.210;5.772;2023-07-24T02:27:00;17.60;88.80
56478;DHT22;42382;53.210;5.772;2023-07-24T02:29:26;17.60;88.70
56478;DHT22;42382;53.210;5.772;2023-07-24T02:31:53;17.60;88.90
56478;DHT22;42382;53.210;5.772;2023-07-24T02:34:19;17.60;88.90
56478;DHT22;42382;53.210;5.772;2023-07-24T02:36:49;17.60;88.80
56478;DHT22;42382;53.210;5.772;2023-07-24T02:39:15;17.60;89.00
56478;DHT22;42382;53.210;5.772;2023-07-24T02:41:41;17.60;88.90
56478;DHT22;42382;53.210;5.772;2023-07-24T02:44:07;17.60;89.00
56478;DHT22;42382;53.210;5.772;2023-07-24T02:46:32;17.60;88.90
56478;DHT22;42382;53.210;5.772;2023-07-24T02:48:58;17.60;89.00
56478;DHT22;42382;53.210;5.772;2023-07-24T02:51:24;17.60;89.00
56478;DHT22;42382;53.210;5.772;2023-07-24T02:53:49;17.70;89.00
56478;DHT22;42382;53.210;5.772;2023-07-24T02:56:15;17.60;89.10
56478;DHT22;42382;53.210;5.772;2023-07-24T02:58:41;17.60;89.00
56478;DHT22;42382;53.210;5.772;2023-07-24T03:01:07;17.60;89.00
56478;DHT22;42382;53.210;5.772;2023-07-24T03:03:34;17.60;89.10
56478;DHT22;42382;53.210;5.772;2023-07-24T03:06:00;17.60;89.00
56478;DHT22;42382;53.210;5.772;2023-07-24T03:08:25;17.60;89.00
56478;DHT22;42382;53.210;5.772;2023-07-24T03:10:51;17.60;89.10
56478;DHT22;42382;53.210;5.772;2023-07-24T03:13:17;17.60;89.00
56478;DHT22;42382;53.210;5.772;2023-07-24T03:15:42;17.60;89.10
56478;DHT22;42382;53.210;5.772;2023-07-24T03:18:08;17.60;89.10
56478;DHT22;42382;53.210;5.772;2023-07-24T03:20:33;17.60;89.10
56478;DHT22;42382;53.210;5.772;2023-07-24T03:22:59;17.60;89.20
56478;DHT22;42382;53.210;5.772;2023-07-24T03:25:25;17.60;89.20
56478;DHT22;42382;53.210;5.772;2023-07-24T03:27:50;17.60;89.20
56478;DHT22;42382;53.210;5.772;2023-07-24T03:30:16;17.60;89.10
56478;DHT22;42382;53.210;5.772;2023-07-24T03:32:42;17.60;89.10
56478;DHT22;42382;53.210;5.772;2023-07-24T03:35:08;17.60;89.20
56478;DHT22;42382;53.210;5.772;2023-07-24T03:37:36;17.60;89.20
56478;DHT22;42382;53.210;5.772;2023-07-24T03:40:02;17.60;89.20
56478;DHT22;42382;53.210;5.772;2023-07-24T03:42:30;17.60;89.30
56478;DHT22;42382;53.210;5.772;2023-07-24T03:44:56;17.60;89.20
56478;DHT22;42382;53.210;5.772;2023-07-24T03:47:23;17.60;89.20
56478;DHT22;42382;53.210;5.772;2023-07-24T03:49:49;17.60;89.20
56478;DHT22;42382;53.210;5.772;2023-07-24T03:52:15;17.60;89.20
56478;DHT22;42382;53.210;5.772;2023-07-24T03:54:41;17.60;89.20
56478;DHT22;42382;53.210;5.772;2023-07-24T03:57:06;17.60;89.20
56478;DHT22;42382;53.210;5.772;2023-07-24T03:59:32;17.60;89.20
56478;DHT22;42382;53.210;5.772;2023-07-24T04:01:58;17.60;89.20
56478;DHT22;42382;53.210;5.772;2023-07-24T04:04:24;17.60;89.20
56478;DHT22;42382;53.210;5.772;2023-07-24T04:06:50;17.60;89.10
56478;DHT22;42382;53.210;5.772;2023-07-24T04:09:15;17.60;89.20
56478;DHT22;42382;53.210;5.772;2023-07-24T04:11:42;17.60;89.10
56478;DHT22;42382;53.210;5.772;2023-07-24T04:14:08;17.70;89.20
56478;DHT22;42382;53.210;5.772;2023-07-24T04:16:34;17.60;89.10
56478;DHT22;42382;53.210;5.772;2023-07-24T04:18:59;17.60;89.10
56478;DHT22;42382;53.210;5.772;2023-07-24T04:21:25;17.70;89.10
56478;DHT22;42382;53.210;5.772;2023-07-24T04:23:51;17.60;89.10
56478;DHT22;42382;53.210;5.772;2023-07-24T04:26:16;17.60;89.10
56478;DHT22;42382;53.210;5.772;2023-07-24T04:28:42;17.60;89.10
56478;DHT22;42382;53.210;5.772;2023-07-24T04:31:07;17.60;89.20
56478;DHT22;42382;53.210;5.772;2023-07-24T04:33:33;17.70;89.20
56478;DHT22;42382;53.210;5.772;2023-07-24T04:35:59;17.70;89.20
56478;DHT22;42382;53.210;5.772;2023-07-24T04:38:24;17.70;89.20
56478;DHT22;42382;53.210;5.772;2023-07-24T04:40:50;17.70;89.20
56478;DHT22;42382;53.210;5.772;2023-07-24T04:43:16;17.70;89.20
56478;DHT22;42382;53.210;5.772;2023-07-24T04:45:41;17.70;89.20
56478;DHT22;42382;53.210;5.772;2023-07-24T04:48:07;17.70;89.20
56478;DHT22;42382;53.210;5.772;2023-07-24T04:50:32;17.70;89.20
56478;DHT22;42382;53.210;5.772;2023-07-24T04:52:58;17.70;89.20
56478;DHT22;42382;53.210;5.772;2023-07-24T04:55:24;17.80;89.30
56478;DHT22;42382;53.210;5.772;2023-07-24T04:57:50;17.80;89.30
56478;DHT22;42382;53.210;5.772;2023-07-24T05:00:16;17.80;89.30
56478;DHT22;42382;53.210;5.772;2023-07-24T05:02:42;17.80;89.30
56478;DHT22;42382;53.210;5.772;2023-07-24T05:05:08;17.80;89.30
56478;DHT22;42382;53.210;5.772;2023-07-24T05:07:33;17.90;89.30
56478;DHT22;42382;53.210;5.772;2023-07-24T05:09:59;17.90;89.30
56478;DHT22;42382;53.210;5.772;2023-07-24T05:12:25;17.90;89.30
56478;DHT22;42382;53.210;5.772;2023-07-24T05:14:50;17.80;89.20
56478;DHT22;42382;53.210;5.772;2023-07-24T05:17:16;17.90;89.20
56478;DHT22;42382;53.210;5.772;2023-07-24T05:19:42;17.90;89.30
56478;DHT22;42382;53.210;5.772;2023-07-24T05:22:07;17.90;89.30
56478;DHT22;42382;53.210;5.772;2023-07-24T05:24:36;17.90;89.20
56478;DHT22;42382;53.210;5.772;2023-07-24T05:27:02;17.80;89.20
56478;DHT22;42382;53.210;5.772;2023-07-24T05:29:28;17.80;89.30
56478;DHT22;42382;53.210;5.772;2023-07-24T05:31:54;17.80;89.30
56478;DHT22;42382;53.210;5.772;2023-07-24T05:34:19;17.90;89.40
56478;DHT22;42382;53.210;5.772;2023-07-24T05:36:45;17.90;89.30
56478;DHT22;42382;53.210;5.772;2023-07-24T05:39:10;17.90;89.40
56478;DHT22;42382;53.210;5.772;2023-07-24T05:41:36;18.00;89.50
56478;DHT22;42382;53.210;5.772;2023-07-24T05:44:02;18.10;89.40
56478;DHT22;42382;53.210;5.772;2023-07-24T05:46:27;18.20;89.50
56478;DHT22;42382;53.210;5.772;2023-07-24T05:48:53;18.30;89.40
56478;DHT22;42382;53.210;5.772;2023-07-24T05:51:18;18.30;89.40
56478;DHT22;42382;53.210;5.772;2023-07-24T05:53:44;18.40;89.30
56478;DHT22;42382;53.210;5.772;2023-07-24T05:56:10;18.50;89.20
56478;DHT22;42382;53.210;5.772;2023-07-24T05:58:35;18.50;89.10
56478;DHT22;42382;53.210;5.772;2023-07-24T06:01:01;18.60;89.00
56478;DHT22;42382;53.210;5.772;2023-07-24T06:03:27;18.70;88.90
56478;DHT22;42382;53.210;5.772;2023-07-24T06:05:53;18.70;88.70
56478;DHT22;42382;53.210;5.772;2023-07-24T06:08:20;18.80;88.50
56478;DHT22;42382;53.210;5.772;2023-07-24T06:10:47;18.90;88.50
56478;DHT22;42382;53.210;5.772;2023-07-24T06:13:13;19.00;88.40
56478;DHT22;42382;53.210;5.772;2023-07-24T06:15:39;19.10;88.30
56478;DHT22;42382;53.210;5.772;2023-07-24T06:18:04;19.10;87.80
56478;DHT22;42382;53.210;5.772;2023-07-24T06:20:30;19.10;87.90
56478;DHT22;42382;53.210;5.772;2023-07-24T06:22:55;19.10;87.30
56478;DHT22;42382;53.210;5.772;2023-07-24T06:25:21;19.00;87.00
56478;DHT22;42382;53.210;5.772;2023-07-24T06:27:46;19.00;87.20
56478;DHT22;42382;53.210;5.772;2023-07-24T06:30:12;19.10;87.30
56478;DHT22;42382;53.210;5.772;2023-07-24T06:32:38;19.10;87.20
56478;DHT22;42382;53.210;5.772;2023-07-24T06:35:04;19.10;87.00
56478;DHT22;42382;53.210;5.772;2023-07-24T06:37:29;19.10;87.00
56478;DHT22;42382;53.210;5.772;2023-07-24T06:39:55;19.20;87.10
56478;DHT22;42382;53.210;5.772;2023-07-24T06:42:21;19.10;86.80
56478;DHT22;42382;53.210;5.772;2023-07-24T06:44:47;19.10;86.80
56478;DHT22;42382;53.210;5.772;2023-07-24T06:47:13;19.10;86.70
56478;DHT22;42382;53.210;5.772;2023-07-24T06:49:38;19.10;86.70
56478;DHT22;42382;53.210;5.772;2023-07-24T06:52:04;19.10;86.70
56478;DHT22;42382;53.210;5.772;2023-07-24T06:54:30;19.10;86.60
56478;DHT22;42382;53.210;5.772;2023-07-24T06:56:55;19.20;86.50
56478;DHT22;42382;53.210;5.772;2023-07-24T06:59:21;19.20;86.50
56478;DHT22;42382;53.210;5.772;2023-07-24T07:01:46;19.40;86.70
56478;DHT22;42382;53.210;5.772;2023-07-24T07:04:12;19.40;86.60
56478;DHT22;42382;53.210;5.772;2023-07-24T07:06:37;19.50;86.50
56478;DHT22;42382;53.210;5.772;2023-07-24T07:09:03;19.60;86.20
56478;DHT22;42382;53.210;5.772;2023-07-24T07:11:30;19.70;86.00
56478;DHT22;42382;53.210;5.772;2023-07-24T07:13:55;19.80;85.80
56478;DHT22;42382;53.210;5.772;2023-07-24T07:18:47;19.90;85.10
56478;DHT22;42382;53.210;5.772;2023-07-24T07:21:13;19.90;85.10
56478;DHT22;42382;53.210;5.772;2023-07-24T07:23:38;19.90;84.20
56478;DHT22;42382;53.210;5.772;2023-07-24T07:26:04;19.80;84.20
56478;DHT22;42382;53.210;5.772;2023-07-24T07:28:29;19.90;84.30
56478;DHT22;42382;53.210;5.772;2023-07-24T07:30:55;19.90;84.60
56478;DHT22;42382;53.210;5.772;2023-07-24T07:33:21;20.10;84.10
56478;DHT22;42382;53.210;5.772;2023-07-24T07:35:47;20.20;83.90
56478;DHT22;42382;53.210;5.772;2023-07-24T07:38:13;20.30;83.50
56478;DHT22;42382;53.210;5.772;2023-07-24T07:40:38;20.30;83.30
56478;DHT22;42382;53.210;5.772;2023-07-24T07:43:04;20.20;82.90
56478;DHT22;42382;53.210;5.772;2023-07-24T07:45:30;20.10;82.90
56478;DHT22;42382;53.210;5.772;2023-07-24T07:47:56;19.90;83.00
56478;DHT22;42382;53.210;5.772;2023-07-24T07:50:21;19.90;83.20
56478;DHT22;42382;53.210;5.772;2023-07-24T07:52:53;19.80;83.30
56478;DHT22;42382;53.210;5.772;2023-07-24T07:55:19;19.80;83.30
56478;DHT22;42382;53.210;5.772;2023-07-24T07:57:45;19.80;83.40
56478;DHT22;42382;53.210;5.772;2023-07-24T08:00:11;19.90;83.80
56478;DHT22;42382;53.210;5.772;2023-07-24T08:02:36;19.90;83.70
56478;DHT22;42382;53.210;5.772;2023-07-24T08:05:09;20.00;83.60
56478;DHT22;42382;53.210;5.772;2023-07-24T08:07:35;20.30;83.70
56478;DHT22;42382;53.210;5.772;2023-07-24T08:10:01;21.00;82.30
56478;DHT22;42382;53.210;5.772;2023-07-24T08:12:27;21.40;81.70
56478;DHT22;42382;53.210;5.772;2023-07-24T08:14:52;21.70;80.70
56478;DHT22;42382;53.210;5.772;2023-07-24T08:17:18;22.70;80.00
56478;DHT22;42382;53.210;5.772;2023-07-24T08:19:45;23.40;76.40
56478;DHT22;42382;53.210;5.772;2023-07-24T08:22:11;23.60;75.50
56478;DHT22;42382;53.210;5.772;2023-07-24T08:24:36;23.20;75.40
56478;DHT22;42382;53.210;5.772;2023-07-24T08:27:02;22.80;76.70
56478;DHT22;42382;53.210;5.772;2023-07-24T08:29:28;22.40;77.50
56478;DHT22;42382;53.210;5.772;2023-07-24T08:31:53;21.90;78.50
56478;DHT22;42382;53.210;5.772;2023-07-24T08:34:19;21.40;79.50
56478;DHT22;42382;53.210;5.772;2023-07-24T08:36:45;21.10;80.50
56478;DHT22;42382;53.210;5.772;2023-07-24T08:39:10;20.90;81.20
56478;DHT22;42382;53.210;5.772;2023-07-24T08:41:37;20.60;81.70
56478;DHT22;42382;53.210;5.772;2023-07-24T08:44:07;20.40;82.20
56478;DHT22;42382;53.210;5.772;2023-07-24T08:46:39;20.20;82.90
56478;DHT22;42382;53.210;5.772;2023-07-24T08:49:14;20.00;83.40
56478;DHT22;42382;53.210;5.772;2023-07-24T08:51:40;19.90;83.70
56478;DHT22;42382;53.210;5.772;2023-07-24T08:54:06;19.90;84.10
56478;DHT22;42382;53.210;5.772;2023-07-24T08:56:33;19.80;84.40
56478;DHT22;42382;53.210;5.772;2023-07-24T08:58:59;19.70;84.70
56478;DHT22;42382;53.210;5.772;2023-07-24T09:01:24;19.80;85.10
56478;DHT22;42382;53.210;5.772;2023-07-24T09:03:50;19.80;85.30
56478;DHT22;42382;53.210;5.772;2023-07-24T09:06:16;19.90;85.10
56478;DHT22;42382;53.210;5.772;2023-07-24T09:08:43;20.40;85.50
56478;DHT22;42382;53.210;5.772;2023-07-24T09:11:10;20.90;84.60
56478;DHT22;42382;53.210;5.772;2023-07-24T09:13:37;21.00;83.70
56478;DHT22;42382;53.210;5.772;2023-07-24T09:16:03;20.90;82.20
56478;DHT22;42382;53.210;5.772;2023-07-24T09:18:42;20.80;81.40
56478;DHT22;42382;53.210;5.772;2023-07-24T09:21:09;20.80;81.80
56478;DHT22;42382;53.210;5.772;2023-07-24T09:23:37;20.90;82.10
56478;DHT22;42382;53.210;5.772;2023-07-24T09:26:07;20.80;81.80
56478;DHT22;42382;53.210;5.772;2023-07-24T09:28:33;20.80;81.90
56478;DHT22;42382;53.210;5.772;2023-07-24T09:31:00;20.80;81.00
56478;DHT22;42382;53.210;5.772;2023-07-24T09:33:40;20.70;81.00
56478;DHT22;42382;53.210;5.772;2023-07-24T09:36:07;20.50;80.60
56478;DHT22;42382;53.210;5.772;2023-07-24T09:38:34;20.60;81.20
56478;DHT22;42382;53.210;5.772;2023-07-24T09:41:02;20.60;81.10
56478;DHT22;42382;53.210;5.772;2023-07-24T09:43:31;20.80;80.50
56478;DHT22;42382;53.210;5.772;2023-07-24T09:45:57;21.10;81.40
56478;DHT22;42382;53.210;5.772;2023-07-24T09:48:25;21.50;80.60
56478;DHT22;42382;53.210;5.772;2023-07-24T09:50:55;21.80;78.90
56478;DHT22;42382;53.210;5.772;2023-07-24T09:53:34;21.90;79.00
56478;DHT22;42382;53.210;5.772;2023-07-24T09:56:05;21.90;77.30
56478;DHT22;42382;53.210;5.772;2023-07-24T09:58:36;21.90;76.60
56478;DHT22;42382;53.210;5.772;2023-07-24T10:01:04;21.60;76.30
56478;DHT22;42382;53.210;5.772;2023-07-24T10:03:33;21.50;76.70
56478;DHT22;42382;53.210;5.772;2023-07-24T10:05:59;21.50;76.30
56478;DHT22;42382;53.210;5.772;2023-07-24T10:08:26;21.40;76.20
56478;DHT22;42382;53.210;5.772;2023-07-24T10:10:52;21.40;77.40
56478;DHT22;42382;53.210;5.772;2023-07-24T10:13:20;21.40;77.10
56478;DHT22;42382;53.210;5.772;2023-07-24T10:15:47;21.40;76.40
56478;DHT22;42382;53.210;5.772;2023-07-24T10:18:17;21.40;76.80
56478;DHT22;42382;53.210;5.772;2023-07-24T10:20:44;21.40;76.80
56478;DHT22;42382;53.210;5.772;2023-07-24T10:23:11;21.50;76.40
56478;DHT22;42382;53.210;5.772;2023-07-24T10:25:39;21.50;76.30
56478;DHT22;42382;53.210;5.772;2023-07-24T10:28:10;21.40;76.00
56478;DHT22;42382;53.210;5.772;2023-07-24T10:30:38;21.30;76.80
56478;DHT22;42382;53.210;5.772;2023-07-24T10:33:18;21.40;76.70
56478;DHT22;42382;53.210;5.772;2023-07-24T10:35:47;21.70;76.90
56478;DHT22;42382;53.210;5.772;2023-07-24T10:38:14;21.90;76.60
56478;DHT22;42382;53.210;5.772;2023-07-24T10:40:41;22.00;75.20
56478;DHT22;42382;53.210;5.772;2023-07-24T10:43:12;22.30;76.10
56478;DHT22;42382;53.210;5.772;2023-07-24T10:45:53;22.70;75.30
56478;DHT22;42382;53.210;5.772;2023-07-24T10:48:20;23.00;74.10
56478;DHT22;42382;53.210;5.772;2023-07-24T10:50:47;23.00;71.80
56478;DHT22;42382;53.210;5.772;2023-07-24T10:53:15;23.30;72.80
56478;DHT22;42382;53.210;5.772;2023-07-24T10:55:44;23.30;70.20
56478;DHT22;42382;53.210;5.772;2023-07-24T10:58:13;23.10;70.40
56478;DHT22;42382;53.210;5.772;2023-07-24T11:00:40;22.90;70.00
56478;DHT22;42382;53.210;5.772;2023-07-24T11:03:12;23.00;71.60
56478;DHT22;42382;53.210;5.772;2023-07-24T11:05:42;23.30;71.00
56478;DHT22;42382;53.210;5.772;2023-07-24T11:08:13;23.30;69.60
56478;DHT22;42382;53.210;5.772;2023-07-24T11:10:49;23.00;69.20
56478;DHT22;42382;53.210;5.772;2023-07-24T11:13:16;22.90;69.80
56478;DHT22;42382;53.210;5.772;2023-07-24T11:15:42;22.90;70.30
56478;DHT22;42382;53.210;5.772;2023-07-24T11:18:08;23.00;69.70
56478;DHT22;42382;53.210;5.772;2023-07-24T11:20:47;22.70;69.20
56478;DHT22;42382;53.210;5.772;2023-07-24T11:23:13;22.80;70.70
56478;DHT22;42382;53.210;5.772;2023-07-24T11:25:39;22.70;70.10
56478;DHT22;42382;53.210;5.772;2023-07-24T11:28:06;22.60;69.90
56478;DHT22;42382;53.210;5.772;2023-07-24T11:30:33;22.50;68.80
56478;DHT22;42382;53.210;5.772;2023-07-24T11:33:00;22.50;69.40
56478;DHT22;42382;53.210;5.772;2023-07-24T11:35:27;22.60;69.50
56478;DHT22;42382;53.210;5.772;2023-07-24T11:37:53;22.60;69.00
56478;DHT22;42382;53.210;5.772;2023-07-24T11:40:19;22.60;69.50
56478;DHT22;42382;53.210;5.772;2023-07-24T11:42:47;22.50;68.40
56478;DHT22;42382;53.210;5.772;2023-07-24T11:45:13;22.60;69.80
56478;DHT22;42382;53.210;5.772;2023-07-24T11:47:43;22.60;69.90
56478;DHT22;42382;53.210;5.772;2023-07-24T11:50:10;22.80;69.50
56478;DHT22;42382;53.210;5.772;2023-07-24T11:52:44;23.00;69.00
56478;DHT22;42382;53.210;5.772;2023-07-24T11:55:11;23.10;68.40
56478;DHT22;42382;53.210;5.772;2023-07-24T11:57:37;23.30;68.10
56478;DHT22;42382;53.210;5.772;2023-07-24T12:00:04;23.30;68.10
56478;DHT22;42382;53.210;5.772;2023-07-24T12:02:32;23.20;67.90
56478;DHT22;42382;53.210;5.772;2023-07-24T12:04:59;23.10;68.20
56478;DHT22;42382;53.210;5.772;2023-07-24T12:07:35;23.00;69.00
56478;DHT22;42382;53.210;5.772;2023-07-24T12:10:04;22.90;69.50
56478;DHT22;42382;53.210;5.772;2023-07-24T12:12:45;22.80;70.10
56478;DHT22;42382;53.210;5.772;2023-07-24T12:15:12;22.70;70.50
56478;DHT22;42382;53.210;5.772;2023-07-24T12:17:38;22.40;70.30
56478;DHT22;42382;53.210;5.772;2023-07-24T12:20:04;22.10;71.00
56478;DHT22;42382;53.210;5.772;2023-07-24T12:22:32;22.00;71.30
56478;DHT22;42382;53.210;5.772;2023-07-24T12:24:57;22.00;72.20
56478;DHT22;42382;53.210;5.772;2023-07-24T12:27:24;22.10;72.20
56478;DHT22;42382;53.210;5.772;2023-07-24T12:29:53;22.10;72.40
56478;DHT22;42382;53.210;5.772;2023-07-24T12:32:18;22.10;71.40
56478;DHT22;42382;53.210;5.772;2023-07-24T12:34:50;22.20;71.90
56478;DHT22;42382;53.210;5.772;2023-07-24T12:37:16;22.40;71.50
56478;DHT22;42382;53.210;5.772;2023-07-24T12:39:46;22.50;71.10
56478;DHT22;42382;53.210;5.772;2023-07-24T12:42:12;22.50;70.40
56478;DHT22;42382;53.210;5.772;2023-07-24T12:44:38;22.40;69.70
56478;DHT22;42382;53.210;5.772;2023-07-24T12:47:04;22.40;70.50
56478;DHT22;42382;53.210;5.772;2023-07-24T12:49:30;22.30;69.30
56478;DHT22;42382;53.210;5.772;2023-07-24T12:51:56;22.20;70.00
56478;DHT22;42382;53.210;5.772;2023-07-24T12:54:21;22.20;70.10
56478;DHT22;42382;53.210;5.772;2023-07-24T12:56:49;22.10;70.30
56478;DHT22;42382;53.210;5.772;2023-07-24T12:59:15;22.10;69.70
56478;DHT22;42382;53.210;5.772;2023-07-24T13:01:40;22.00;69.90
56478;DHT22;42382;53.210;5.772;2023-07-24T13:04:07;22.00;70.40
56478;DHT22;42382;53.210;5.772;2023-07-24T13:06:33;21.90;70.60
56478;DHT22;42382;53.210;5.772;2023-07-24T13:08:59;22.00;70.20
56478;DHT22;42382;53.210;5.772;2023-07-24T13:11:25;21.90;69.90
56478;DHT22;42382;53.210;5.772;2023-07-24T13:13:50;21.70;69.90
56478;DHT22;42382;53.210;5.772;2023-07-24T13:16:17;21.70;70.00
56478;DHT22;42382;53.210;5.772;2023-07-24T13:18:43;21.60;70.00
56478;DHT22;42382;53.210;5.772;2023-07-24T13:21:08;21.50;70.10
56478;DHT22;42382;53.210;5.772;2023-07-24T13:23:34;21.40;70.50
56478;DHT22;42382;53.210;5.772;2023-07-24T13:26:00;21.40;70.00
56478;DHT22;42382;53.210;5.772;2023-07-24T13:28:25;21.10;68.70
56478;DHT22;42382;53.210;5.772;2023-07-24T13:30:51;20.80;69.20
56478;DHT22;42382;53.210;5.772;2023-07-24T13:33:17;20.60;69.20
56478;DHT22;42382;53.210;5.772;2023-07-24T13:35:43;20.40;69.90
56478;DHT22;42382;53.210;5.772;2023-07-24T13:38:08;20.30;69.80
56478;DHT22;42382;53.210;5.772;2023-07-24T13:40:35;20.30;69.90
56478;DHT22;42382;53.210;5.772;2023-07-24T13:43:01;20.30;69.80
56478;DHT22;42382;53.210;5.772;2023-07-24T13:45:27;20.20;69.00
56478;DHT22;42382;53.210;5.772;2023-07-24T13:47:54;20.00;69.30
56478;DHT22;42382;53.210;5.772;2023-07-24T13:50:20;19.90;69.50
56478;DHT22;42382;53.210;5.772;2023-07-24T13:52:45;19.70;69.90
56478;DHT22;42382;53.210;5.772;2023-07-24T13:55:11;19.40;70.90
56478;DHT22;42382;53.210;5.772;2023-07-24T13:57:37;19.40;71.60
56478;DHT22;42382;53.210;5.772;2023-07-24T14:00:03;19.20;71.80
56478;DHT22;42382;53.210;5.772;2023-07-24T14:02:28;19.10;72.10
56478;DHT22;42382;53.210;5.772;2023-07-24T14:04:54;19.10;72.20
56478;DHT22;42382;53.210;5.772;2023-07-24T14:07:19;19.00;72.60
56478;DHT22;42382;53.210;5.772;2023-07-24T14:09:45;18.90;72.90
56478;DHT22;42382;53.210;5.772;2023-07-24T14:12:11;18.80;72.60
56478;DHT22;42382;53.210;5.772;2023-07-24T14:14:36;18.80;72.60
56478;DHT22;42382;53.210;5.772;2023-07-24T14:17:02;18.70;72.70
56478;DHT22;42382;53.210;5.772;2023-07-24T14:19:28;18.70;72.50
56478;DHT22;42382;53.210;5.772;2023-07-24T14:21:53;18.70;72.50
56478;DHT22;42382;53.210;5.772;2023-07-24T14:24:19;18.60;72.60
56478;DHT22;42382;53.210;5.772;2023-07-24T14:26:45;18.60;73.00
56478;DHT22;42382;53.210;5.772;2023-07-24T14:29:11;18.50;73.20
56478;DHT22;42382;53.210;5.772;2023-07-24T14:31:37;18.50;73.40
56478;DHT22;42382;53.210;5.772;2023-07-24T14:34:03;18.50;73.30
56478;DHT22;42382;53.210;5.772;2023-07-24T14:36:29;18.40;73.70
56478;DHT22;42382;53.210;5.772;2023-07-24T14:39:02;18.50;74.00
56478;DHT22;42382;53.210;5.772;2023-07-24T14:41:28;18.40;74.20
56478;DHT22;42382;53.210;5.772;2023-07-24T14:43:54;18.40;74.50
56478;DHT22;42382;53.210;5.772;2023-07-24T14:46:19;18.40;75.10
56478;DHT22;42382;53.210;5.772;2023-07-24T14:48:45;18.40;75.40
56478;DHT22;42382;53.210;5.772;2023-07-24T14:51:11;18.40;75.00
56478;DHT22;42382;53.210;5.772;2023-07-24T14:53:37;18.40;75.10
56478;DHT22;42382;53.210;5.772;2023-07-24T14:56:03;18.40;75.70
56478;DHT22;42382;53.210;5.772;2023-07-24T14:58:29;18.20;76.40
56478;DHT22;42382;53.210;5.772;2023-07-24T15:00:55;18.20;77.00
56478;DHT22;42382;53.210;5.772;2023-07-24T15:03:21;18.20;77.60
56478;DHT22;42382;53.210;5.772;2023-07-24T15:05:46;18.20;78.00
56478;DHT22;42382;53.210;5.772;2023-07-24T15:08:12;18.10;77.90
56478;DHT22;42382;53.210;5.772;2023-07-24T15:10:38;18.10;78.60
56478;DHT22;42382;53.210;5.772;2023-07-24T15:13:03;18.10;79.10
56478;DHT22;42382;53.210;5.772;2023-07-24T15:15:29;18.20;79.10
56478;DHT22;42382;53.210;5.772;2023-07-24T15:17:55;18.30;78.90
56478;DHT22;42382;53.210;5.772;2023-07-24T15:20:21;18.30;78.70
56478;DHT22;42382;53.210;5.772;2023-07-24T15:22:47;18.30;78.40
56478;DHT22;42382;53.210;5.772;2023-07-24T15:25:13;18.20;77.60
56478;DHT22;42382;53.210;5.772;2023-07-24T15:27:39;18.20;77.20
56478;DHT22;42382;53.210;5.772;2023-07-24T15:30:05;18.10;76.90